createdAt,value
2019-05-02T00:01:55.299Z,16.43
2019-05-02T00:07:07.341Z,15.73
2019-05-02T00:12:12.458Z,16.43
2019-05-02T00:17:14.443Z,17.83
2019-05-02T00:22:17.158Z,18.23
2019-05-02T00:27:19.697Z,17.20
2019-05-02T00:32:22.446Z,18.43
2019-05-02T00:37:26.690Z,18.07
2019-05-02T00:42:28.603Z,17.83
2019-05-02T00:47:47.723Z,17.83
2019-05-02T00:52:46.060Z,16.77
2019-05-02T00:57:50.908Z,17.30
2019-05-02T01:02:56.199Z,18.03
2019-05-02T01:08:01.138Z,17.73
2019-05-02T01:13:01.326Z,17.20
2019-05-02T01:18:06.068Z,18.10
2019-05-02T01:23:06.464Z,17.70
2019-05-02T01:28:25.297Z,19.07
2019-05-02T01:33:36.799Z,18.23
2019-05-02T01:38:43.172Z,18.13
2019-05-02T01:43:44.736Z,18.40
2019-05-02T01:48:47.794Z,18.83
2019-05-02T01:53:49.508Z,19.77
2019-05-02T01:58:53.068Z,19.27
2019-05-02T02:03:54.920Z,20.17
2019-05-02T02:08:56.615Z,20.17
2019-05-02T02:13:58.186Z,21.70
2019-05-02T02:19:07.795Z,20.77
2019-05-02T02:24:25.210Z,21.13
2019-05-02T02:29:26.464Z,21.43
2019-05-02T02:34:29.768Z,20.57
2019-05-02T02:39:31.639Z,19.47
2019-05-02T02:44:52.991Z,19.70
2019-05-02T02:50:02.147Z,18.93
2019-05-02T02:54:58.963Z,20.63
2019-05-02T03:00:07.855Z,21.60
2019-05-02T03:05:04.395Z,20.67
2019-05-02T03:10:08.157Z,19.50
2019-05-02T03:15:13.214Z,19.30
2019-05-02T03:20:14.889Z,20.30
2019-05-02T03:25:18.071Z,19.67
2019-05-02T03:30:30.976Z,18.67
2019-05-02T03:35:39.650Z,21.33
2019-05-02T03:40:32.247Z,20.50
2019-05-02T03:45:32.037Z,20.37
2019-05-02T03:50:35.414Z,20.10
2019-05-02T03:55:37.629Z,19.60
2019-05-02T04:00:39.296Z,18.37
2019-05-02T04:05:42.337Z,18.03
2019-05-02T04:11:22.307Z,17.07
2019-05-02T04:16:27.557Z,19.37
2019-05-02T04:21:29.138Z,19.33
2019-05-02T04:26:30.899Z,18.90
2019-05-02T04:31:33.879Z,20.10
2019-05-02T04:36:35.640Z,20.37
2019-05-02T04:41:42.015Z,19.77
2019-05-02T04:46:40.704Z,20.33
2019-05-02T04:51:50.668Z,21.57
2019-05-02T04:56:52.343Z,20.20
2019-05-02T05:01:57.312Z,21.57
2019-05-02T05:06:58.217Z,21.07
2019-05-02T05:11:59.011Z,20.97
2019-05-02T05:16:59.711Z,23.20
2019-05-02T05:22:04.905Z,22.97
2019-05-02T05:27:04.782Z,22.03
2019-05-02T05:32:09.879Z,20.30
2019-05-02T05:37:13.464Z,20.53
2019-05-02T05:42:13.307Z,22.27
2019-05-02T05:47:17.682Z,21.67
2019-05-02T05:52:18.315Z,23.07
2019-05-02T05:57:21.199Z,20.63
2019-05-02T06:02:22.956Z,21.43
2019-05-02T06:07:24.528Z,21.00
2019-05-02T06:12:30.383Z,21.83
2019-05-02T06:17:30.460Z,22.90
2019-05-02T06:22:32.391Z,23.33
2019-05-02T06:27:34.059Z,23.87
2019-05-02T06:32:35.748Z,23.33
2019-05-02T06:37:40.419Z,24.23
2019-05-02T06:42:41.056Z,25.30
2019-05-02T06:47:43.645Z,24.37
2019-05-02T06:52:45.478Z,24.53
2019-05-02T06:57:47.296Z,24.27
2019-05-02T07:02:48.844Z,25.20
2019-05-02T07:07:50.387Z,25.77
2019-05-02T07:13:09.220Z,25.10
2019-05-02T07:17:58.313Z,24.80
2019-05-02T07:23:00.084Z,25.07
2019-05-02T07:28:04.646Z,25.17
2019-05-02T07:33:05.345Z,24.33
2019-05-02T07:38:07.039Z,25.40
2019-05-02T07:43:13.501Z,25.60
2019-05-02T07:48:17.198Z,25.87
2019-05-02T07:53:15.822Z,27.13
2019-05-02T07:58:17.391Z,29.93
2019-05-02T08:03:18.949Z,28.63
2019-05-02T08:08:20.669Z,26.73
2019-05-02T08:13:22.405Z,28.23
2019-05-02T08:18:25.243Z,27.23
2019-05-02T08:23:27.932Z,25.93
2019-05-02T08:28:35.967Z,26.43
2019-05-02T08:33:37.665Z,26.63
2019-05-02T08:38:39.358Z,24.33
2019-05-02T08:43:44.890Z,26.70
2019-05-02T08:48:44.448Z,26.03
2019-05-02T08:53:46.216Z,27.03
2019-05-02T08:58:49.846Z,26.27
2019-05-02T09:03:56.763Z,25.40
2019-05-02T09:08:55.257Z,24.83
2019-05-02T09:13:56.877Z,26.13
2019-05-02T09:18:58.526Z,25.97
2019-05-02T09:24:02.349Z,26.90
2019-05-02T09:29:05.407Z,24.37
2019-05-02T09:34:07.303Z,26.93
2019-05-02T09:39:09.010Z,26.00
2019-05-02T09:44:14.566Z,26.63
2019-05-02T09:49:16.577Z,23.73
2019-05-02T09:54:17.999Z,25.53
2019-05-02T09:59:27.781Z,24.97
2019-05-02T10:04:25.177Z,25.27
2019-05-02T10:09:27.312Z,23.30
2019-05-02T10:14:29.368Z,23.32
2019-05-02T10:19:32.687Z,22.82
2019-05-02T10:24:34.498Z,20.65
2019-05-02T10:29:36.392Z,22.17
2019-05-02T10:34:38.117Z,21.07
2019-05-02T10:39:39.882Z,21.03
2019-05-02T10:44:42.664Z,20.53
2019-05-02T10:49:55.252Z,20.15
2019-05-02T10:54:56.872Z,20.32
2019-05-02T10:59:59.345Z,20.43
2019-05-02T11:05:07.056Z,21.10
2019-05-02T11:10:08.929Z,20.15
2019-05-02T11:15:29.082Z,20.50
2019-05-02T11:20:32.942Z,19.80
2019-05-02T11:25:34.552Z,18.12
2019-05-02T11:30:36.866Z,17.57
2019-05-02T11:35:41.956Z,15.15
2019-05-02T11:40:42.626Z,17.35
2019-05-02T11:45:44.315Z,13.43
2019-05-02T11:50:45.927Z,11.83
2019-05-02T11:55:47.536Z,12.70
2019-05-02T12:00:49.789Z,12.82
2019-05-02T12:05:52.434Z,12.25
2019-05-02T12:10:54.256Z,11.70
2019-05-02T12:15:56.200Z,12.47
2019-05-02T12:20:57.792Z,11.35
2019-05-02T12:25:59.583Z,10.85
2019-05-02T12:31:02.718Z,10.35
2019-05-02T12:36:06.349Z,9.55
2019-05-02T12:41:19.508Z,9.28
2019-05-02T12:46:11.765Z,8.15
2019-05-02T12:51:13.293Z,9.58
2019-05-02T12:56:14.885Z,7.05
2019-05-02T13:01:16.563Z,7.17
2019-05-02T13:06:18.374Z,14.38
2019-05-02T13:11:36.848Z,13.38
2019-05-02T13:16:38.062Z,13.20
2019-05-02T13:22:17.376Z,14.83
2019-05-02T13:27:20.312Z,14.65
2019-05-02T13:32:36.567Z,13.48
2019-05-02T13:37:38.383Z,13.20
2019-05-02T13:42:41.803Z,12.63
2019-05-02T13:47:43.702Z,13.28
2019-05-02T13:52:53.166Z,15.32
2019-05-02T13:57:48.814Z,13.75
2019-05-02T14:02:51.999Z,14.28
2019-05-02T14:08:01.798Z,13.95
2019-05-02T14:13:03.704Z,14.73
2019-05-02T14:18:05.553Z,14.10
2019-05-02T14:23:07.237Z,15.35
2019-05-02T14:28:08.953Z,14.25
2019-05-02T14:33:15.916Z,13.68
2019-05-02T14:38:17.477Z,14.23
2019-05-02T14:43:38.193Z,13.75
2019-05-02T14:48:45.095Z,13.00
2019-05-02T14:53:44.793Z,12.82
2019-05-02T14:58:46.522Z,12.47
2019-05-02T15:03:48.106Z,12.65
2019-05-02T15:08:49.678Z,12.47
2019-05-02T15:13:52.491Z,11.70
2019-05-02T15:18:56.993Z,10.70
2019-05-02T15:23:58.059Z,11.45
2019-05-02T15:29:01.803Z,9.65
2019-05-02T15:34:26.029Z,10.10
2019-05-02T15:44:31.757Z,8.35
2019-05-02T15:49:44.963Z,7.70
2019-05-02T15:54:46.633Z,7.95
2019-05-02T15:59:48.208Z,5.80
2019-05-02T16:04:49.769Z,5.58
2019-05-02T16:09:51.588Z,5.92
2019-05-02T16:14:55.062Z,5.12
2019-05-02T16:20:07.664Z,4.35
2019-05-02T16:25:05.891Z,4.60
2019-05-02T16:30:10.759Z,2.70
2019-05-02T16:35:16.935Z,1.80
2019-05-02T16:40:22.078Z,1.77
2019-05-02T16:45:22.305Z,1.87
2019-05-02T16:50:27.595Z,1.62
2019-05-02T16:55:27.977Z,1.20
2019-05-02T17:00:31.851Z,1.20
2019-05-02T17:05:33.641Z,1.57
2019-05-02T17:10:57.145Z,1.72
2019-05-02T17:15:58.870Z,2.17
2019-05-02T17:21:01.674Z,2.37
2019-05-02T17:26:04.140Z,2.75
2019-05-02T17:31:10.734Z,3.72
2019-05-02T17:36:09.386Z,4.30
2019-05-02T17:41:11.864Z,4.92
2019-05-02T17:46:18.293Z,5.35
2019-05-02T17:51:28.347Z,5.40
2019-05-02T17:56:32.579Z,5.15
2019-05-02T18:01:37.143Z,5.35
2019-05-02T18:06:38.704Z,4.55
2019-05-02T18:11:42.295Z,5.22
2019-05-02T18:16:47.182Z,5.62
2019-05-02T18:21:47.579Z,5.58
2019-05-02T18:26:49.150Z,5.58
2019-05-02T18:31:52.155Z,5.47
2019-05-02T18:36:57.602Z,6.47
2019-05-02T18:41:57.387Z,5.83
2019-05-02T18:46:59.049Z,5.30
2019-05-02T18:52:01.792Z,5.40
2019-05-02T18:57:03.668Z,5.92
2019-05-02T19:02:05.342Z,6.77
2019-05-02T19:07:07.478Z,7.33
2019-05-02T19:12:19.409Z,7.17
2019-05-02T19:17:14.252Z,7.13
2019-05-02T19:22:17.012Z,7.30
2019-05-02T19:27:38.462Z,6.60
2019-05-02T19:32:41.721Z,6.73
2019-05-02T19:37:47.583Z,6.57
2019-05-02T19:42:47.028Z,7.60
2019-05-02T19:47:48.908Z,7.03
2019-05-02T19:53:00.830Z,7.40
2019-05-02T19:57:56.627Z,7.23
2019-05-02T20:02:57.824Z,8.30
2019-05-02T20:07:59.374Z,7.50
2019-05-02T20:13:03.185Z,8.00
2019-05-02T20:18:05.232Z,7.83
2019-05-02T20:23:15.509Z,7.97
2019-05-02T20:28:10.341Z,7.77
2019-05-02T20:33:12.834Z,8.50
2019-05-02T20:38:14.684Z,8.83
2019-05-02T20:43:16.240Z,10.40
2019-05-02T20:48:17.913Z,12.83
2019-05-02T20:53:28.740Z,12.73
2019-05-02T20:58:23.131Z,15.00
2019-05-02T21:03:24.819Z,15.10
2019-05-02T21:08:52.648Z,15.30
2019-05-02T21:13:54.188Z,15.43
2019-05-02T21:18:55.766Z,16.60
2019-05-02T21:23:57.337Z,15.83
2019-05-02T21:28:58.916Z,16.30
2019-05-02T21:34:02.452Z,16.63
2019-05-02T21:39:09.578Z,16.57
2019-05-02T21:44:13.076Z,15.70
2019-05-02T21:49:34.677Z,16.23
2019-05-02T21:55:04.809Z,15.10
2019-05-02T22:00:09.366Z,15.57
2019-05-02T22:05:12.646Z,14.77
2019-05-02T22:10:14.506Z,14.30
2019-05-02T22:15:16.051Z,13.03
2019-05-02T22:20:17.722Z,13.70
2019-05-02T22:25:19.491Z,13.40
2019-05-02T22:30:21.943Z,12.67
2019-05-02T22:35:23.600Z,12.60
2019-05-02T22:40:25.149Z,13.03
2019-05-02T22:45:26.696Z,12.63
2019-05-02T22:50:28.290Z,12.97
2019-05-02T22:55:31.897Z,12.60
2019-05-02T23:00:33.520Z,11.10
2019-05-02T23:05:35.204Z,10.17
2019-05-02T23:10:36.852Z,10.47
2019-05-02T23:15:38.531Z,8.90
2019-05-02T23:20:42.087Z,8.63
2019-05-02T23:26:08.853Z,8.37
2019-05-02T23:31:11.439Z,7.33
2019-05-02T23:36:14.082Z,7.97
2019-05-02T23:41:15.631Z,7.90
2019-05-02T23:46:17.193Z,8.13
2019-05-02T23:51:18.847Z,8.77
2019-05-02T23:56:22.112Z,8.00
